createdAt,value
2022-10-19T00:01:59.401Z,18.96
2022-10-19T00:04:30.242Z,18.93
2022-10-19T00:07:00.628Z,18.94
2022-10-19T00:09:30.467Z,18.92
2022-10-19T00:12:00.338Z,18.90
2022-10-19T00:14:30.653Z,18.97
2022-10-19T00:17:00.438Z,18.99
2022-10-19T00:19:30.720Z,19.03
2022-10-19T00:22:01.407Z,19.03
2022-10-19T00:24:35.479Z,19.07
2022-10-19T00:27:09.124Z,18.97
2022-10-19T00:29:40.597Z,18.99
2022-10-19T00:32:10.730Z,18.99
2022-10-19T00:34:40.681Z,18.96
2022-10-19T00:37:10.945Z,18.96
2022-10-19T00:39:40.611Z,19.00
2022-10-19T00:42:13.653Z,19.00
2022-10-19T00:44:46.906Z,18.99
2022-10-19T00:47:18.119Z,19.01
2022-10-19T00:49:48.917Z,19.01
2022-10-19T00:52:23.505Z,19.03
2022-10-19T00:54:55.531Z,19.00
2022-10-19T00:57:29.868Z,18.99
2022-10-19T01:00:02.527Z,18.99
2022-10-19T01:02:33.191Z,19.01
2022-10-19T01:05:04.261Z,19.00
2022-10-19T01:07:34.708Z,19.00
2022-10-19T01:10:06.321Z,19.04
2022-10-19T01:13:04.286Z,19.07
2022-10-19T01:15:48.563Z,19.10
2022-10-19T01:18:37.018Z,19.00
2022-10-19T01:21:24.001Z,19.06
2022-10-19T01:24:20.271Z,19.10
2022-10-19T01:27:23.508Z,19.11
2022-10-19T01:30:15.380Z,19.08
2022-10-19T01:32:57.585Z,19.07
2022-10-19T01:35:59.650Z,19.13
2022-10-19T01:38:39.101Z,19.06
2022-10-19T01:41:35.952Z,19.03
2022-10-19T01:44:06.157Z,19.03
2022-10-19T01:46:45.053Z,19.03
2022-10-19T01:49:46.449Z,19.07
2022-10-19T01:52:17.941Z,19.07
2022-10-19T01:54:53.845Z,19.06
2022-10-19T01:57:33.968Z,19.07
2022-10-19T02:00:08.631Z,19.07
2022-10-19T02:02:51.934Z,19.04
2022-10-19T02:05:25.937Z,19.01
2022-10-19T02:08:01.978Z,19.01
2022-10-19T02:10:35.200Z,19.00
2022-10-19T02:13:06.343Z,19.00
2022-10-19T02:15:41.818Z,19.01
2022-10-19T02:18:14.964Z,19.06
2022-10-19T02:20:45.305Z,19.01
2022-10-19T02:23:19.030Z,19.04
2022-10-19T02:25:49.752Z,18.97
2022-10-19T02:28:20.654Z,18.99
2022-10-19T02:30:51.208Z,19.00
2022-10-19T02:33:21.741Z,19.03
2022-10-19T02:35:52.167Z,18.90
2022-10-19T02:38:25.241Z,18.86
2022-10-19T02:41:19.617Z,18.83
2022-10-19T02:43:53.170Z,18.86
2022-10-19T02:46:33.387Z,18.83
2022-10-19T02:49:05.687Z,18.83
2022-10-19T02:51:57.144Z,18.86
2022-10-19T02:54:27.514Z,18.90
2022-10-19T02:56:58.022Z,18.86
2022-10-19T02:59:28.542Z,18.86
2022-10-19T03:01:58.708Z,18.84
2022-10-19T03:04:28.608Z,18.82
2022-10-19T03:06:58.766Z,18.79
2022-10-19T03:09:29.432Z,18.69
2022-10-19T03:11:59.643Z,18.69
2022-10-19T03:14:29.863Z,18.70
2022-10-19T03:17:00.078Z,18.63
2022-10-19T03:19:30.304Z,18.60
2022-10-19T03:22:00.478Z,18.59
2022-10-19T03:24:32.514Z,18.67
2022-10-19T03:27:02.809Z,18.69
2022-10-19T03:29:33.456Z,18.62
2022-10-19T03:32:03.659Z,18.59
2022-10-19T03:34:34.001Z,18.55
2022-10-19T03:37:04.259Z,18.53
2022-10-19T03:39:34.365Z,18.57
2022-10-19T03:42:04.104Z,18.64
2022-10-19T03:44:34.307Z,18.49
2022-10-19T03:47:04.532Z,18.48
2022-10-19T03:49:36.819Z,18.45
2022-10-19T03:52:11.243Z,18.43
2022-10-19T03:54:41.524Z,18.46
2022-10-19T03:57:11.878Z,18.43
2022-10-19T03:59:41.636Z,18.43
2022-10-19T04:02:11.468Z,18.43
2022-10-19T04:04:41.589Z,18.43
2022-10-19T04:07:11.728Z,18.39
2022-10-19T04:09:41.878Z,18.39
2022-10-19T04:12:12.074Z,18.38
2022-10-19T04:14:56.193Z,18.36
2022-10-19T04:17:27.986Z,18.41
2022-10-19T04:19:57.540Z,18.35
2022-10-19T04:22:27.370Z,18.31
2022-10-19T04:24:57.667Z,18.31
2022-10-19T04:27:27.316Z,18.29
2022-10-19T04:29:57.161Z,18.28
2022-10-19T04:32:27.314Z,18.21
2022-10-19T04:34:57.590Z,18.21
2022-10-19T04:37:27.762Z,18.21
2022-10-19T04:39:57.924Z,18.21
2022-10-19T04:42:28.115Z,18.16
2022-10-19T04:44:58.360Z,18.18
2022-10-19T04:47:30.216Z,18.16
2022-10-19T04:50:00.567Z,18.12
2022-10-19T04:52:30.315Z,18.15
2022-10-19T04:55:00.430Z,18.11
2022-10-19T04:57:31.435Z,18.05
2022-10-19T05:00:02.003Z,18.06
2022-10-19T05:02:31.645Z,18.04
2022-10-19T05:05:01.518Z,18.05
2022-10-19T05:07:31.982Z,18.05
2022-10-19T05:10:02.449Z,17.98
2022-10-19T05:12:32.063Z,17.97
2022-10-19T05:15:02.176Z,18.00
2022-10-19T05:17:35.563Z,17.94
2022-10-19T05:20:06.254Z,17.90
2022-10-19T05:22:36.450Z,17.85
2022-10-19T05:25:08.142Z,17.88
2022-10-19T05:27:38.588Z,17.87
2022-10-19T05:30:09.687Z,17.88
2022-10-19T05:32:40.271Z,17.88
2022-10-19T05:35:10.668Z,17.84
2022-10-19T05:37:40.934Z,17.84
2022-10-19T05:40:12.007Z,17.80
2022-10-19T05:42:42.288Z,17.77
2022-10-19T05:45:12.813Z,17.82
2022-10-19T05:47:43.088Z,17.88
2022-10-19T05:50:13.299Z,17.82
2022-10-19T05:52:43.448Z,17.84
2022-10-19T05:55:13.181Z,17.84
2022-10-19T05:57:43.329Z,17.82
2022-10-19T06:00:14.088Z,17.75
2022-10-19T06:02:44.959Z,17.74
2022-10-19T06:05:15.269Z,17.66
2022-10-19T06:07:45.491Z,17.67
2022-10-19T06:10:15.745Z,17.69
2022-10-19T06:12:45.987Z,17.69
2022-10-19T06:15:16.265Z,17.70
2022-10-19T06:17:46.044Z,17.69
2022-10-19T06:20:16.276Z,17.61
2022-10-19T06:22:45.917Z,17.60
2022-10-19T06:25:18.110Z,17.54
2022-10-19T06:27:50.650Z,17.51
2022-10-19T06:30:20.853Z,17.43
2022-10-19T06:32:51.869Z,17.41
2022-10-19T06:35:22.553Z,17.49
2022-10-19T06:37:53.126Z,17.46
2022-10-19T06:40:23.284Z,17.44
2022-10-19T06:42:53.707Z,17.44
2022-10-19T06:45:23.524Z,17.43
2022-10-19T06:47:53.424Z,17.47
2022-10-19T06:50:24.474Z,17.41
2022-10-19T06:52:54.712Z,17.44
2022-10-19T06:55:24.798Z,17.47
2022-10-19T06:57:54.742Z,17.46
2022-10-19T07:00:24.626Z,17.50
2022-10-19T07:02:54.603Z,17.53
2022-10-19T07:05:24.924Z,17.51
2022-10-19T07:07:56.635Z,17.47
2022-10-19T07:10:26.330Z,17.43
2022-10-19T07:12:58.373Z,17.43
2022-10-19T07:15:28.884Z,17.43
2022-10-19T07:17:59.115Z,17.44
2022-10-19T07:20:29.309Z,17.47
2022-10-19T07:22:59.579Z,17.50
2022-10-19T07:25:31.278Z,17.44
2022-10-19T07:28:01.729Z,17.44
2022-10-19T07:30:31.429Z,17.49
2022-10-19T07:33:01.696Z,17.55
2022-10-19T07:35:31.994Z,17.61
2022-10-19T07:38:02.209Z,17.61
2022-10-19T07:40:32.396Z,17.60
2022-10-19T07:43:02.796Z,17.54
2022-10-19T07:45:33.638Z,17.63
2022-10-19T07:48:03.905Z,17.70
2022-10-19T07:50:33.496Z,17.74
2022-10-19T07:53:06.573Z,17.75
2022-10-19T07:55:36.970Z,17.81
2022-10-19T07:58:07.202Z,17.85
2022-10-19T08:00:37.375Z,17.87
2022-10-19T08:06:02.463Z,17.91
2022-10-19T08:08:33.030Z,17.94
2022-10-19T08:11:17.169Z,17.82
2022-10-19T08:13:48.453Z,17.85
2022-10-19T08:16:45.829Z,17.92
2022-10-19T08:19:17.810Z,17.94
2022-10-19T08:21:48.822Z,17.97
2022-10-19T08:24:20.456Z,17.98
2022-10-19T08:26:52.511Z,18.00
2022-10-19T08:29:25.498Z,17.90
2022-10-19T08:31:57.920Z,17.87
2022-10-19T08:34:28.700Z,17.95
2022-10-19T08:36:58.820Z,18.02
2022-10-19T08:39:29.003Z,18.04
2022-10-19T08:42:03.738Z,18.06
2022-10-19T08:44:36.654Z,18.04
2022-10-19T08:47:36.819Z,18.09
2022-10-19T08:50:27.082Z,18.09
2022-10-19T08:53:09.364Z,18.08
2022-10-19T08:56:07.145Z,18.12
2022-10-19T08:58:55.931Z,18.13
2022-10-19T09:01:48.217Z,18.16
2022-10-19T09:04:33.147Z,18.18
2022-10-19T09:07:09.377Z,18.15
2022-10-19T09:12:46.959Z,18.18
2022-10-19T09:15:22.109Z,18.18
2022-10-19T09:17:52.431Z,18.25
2022-10-19T09:20:24.272Z,18.32
2022-10-19T09:23:29.295Z,18.35
2022-10-19T09:26:00.089Z,18.42
2022-10-19T09:28:54.752Z,18.46
2022-10-19T09:31:39.582Z,18.51
2022-10-19T09:34:23.524Z,18.53
2022-10-19T09:36:58.915Z,18.60
2022-10-19T09:39:32.018Z,18.60
2022-10-19T09:42:07.557Z,18.63
2022-10-19T09:44:38.340Z,18.69
2022-10-19T09:47:26.933Z,18.73
2022-10-19T09:50:17.165Z,18.79
2022-10-19T09:52:52.840Z,18.82
2022-10-19T09:55:37.644Z,18.84
2022-10-19T09:58:19.152Z,18.87
2022-10-19T10:00:57.561Z,18.92
2022-10-19T10:03:44.638Z,18.97
2022-10-19T10:06:18.015Z,18.99
2022-10-19T10:08:59.210Z,19.01
2022-10-19T10:11:40.343Z,19.01
2022-10-19T10:14:41.187Z,19.06
2022-10-19T10:17:24.711Z,19.06
2022-10-19T10:20:08.120Z,19.08
2022-10-19T10:22:39.289Z,19.14
2022-10-19T10:25:19.933Z,19.14
2022-10-19T10:28:24.911Z,19.25
2022-10-19T10:31:07.167Z,19.38
2022-10-19T10:33:44.580Z,19.47
2022-10-19T10:36:16.915Z,19.51
2022-10-19T10:38:52.367Z,19.47
2022-10-19T10:41:25.170Z,19.42
2022-10-19T10:44:05.603Z,19.55
2022-10-19T10:46:51.157Z,19.62
2022-10-19T10:49:38.821Z,19.66
2022-10-19T10:52:13.909Z,19.58
2022-10-19T10:55:16.198Z,19.75
2022-10-19T10:57:53.489Z,19.71
2022-10-19T11:00:28.104Z,19.75
2022-10-19T11:03:03.539Z,19.89
2022-10-19T11:05:38.086Z,19.95
2022-10-19T11:08:42.581Z,20.00
2022-10-19T11:11:17.935Z,20.15
2022-10-19T11:13:58.417Z,20.34
2022-10-19T11:16:43.805Z,20.53
2022-10-19T11:19:33.780Z,20.68
2022-10-19T11:22:06.981Z,20.70
2022-10-19T11:24:59.877Z,20.78
2022-10-19T11:28:05.377Z,20.84
2022-10-19T11:30:50.536Z,20.81
2022-10-19T11:33:20.922Z,20.95
2022-10-19T11:35:55.561Z,20.95
2022-10-19T11:38:55.646Z,21.05
2022-10-19T11:41:37.728Z,21.14
2022-10-19T11:44:17.125Z,21.12
2022-10-19T11:47:12.068Z,21.28
2022-10-19T11:49:42.353Z,21.21
2022-10-19T11:52:24.662Z,21.24
2022-10-19T11:55:13.462Z,21.19
2022-10-19T11:57:43.119Z,21.24
2022-10-19T12:00:39.791Z,21.31
2022-10-19T12:03:46.712Z,21.29
2022-10-19T12:06:39.771Z,21.34
2022-10-19T12:09:24.965Z,21.53
2022-10-19T12:11:58.009Z,21.42
2022-10-19T12:14:33.620Z,21.57
2022-10-19T12:17:16.552Z,21.60
2022-10-19T12:19:51.148Z,21.63
2022-10-19T12:22:31.873Z,21.62
2022-10-19T12:25:03.694Z,21.82
2022-10-19T12:27:41.980Z,21.82
2022-10-19T12:30:22.931Z,21.97
2022-10-19T12:33:13.904Z,22.20
2022-10-19T12:35:54.279Z,22.25
2022-10-19T12:38:42.305Z,22.43
2022-10-19T12:41:28.328Z,22.62
2022-10-19T12:44:10.785Z,22.75
2022-10-19T12:46:51.299Z,22.69
2022-10-19T12:49:59.700Z,22.81
2022-10-19T12:53:02.083Z,22.75
2022-10-19T12:55:36.252Z,22.89
2022-10-19T12:58:24.398Z,22.88
2022-10-19T13:01:02.860Z,22.71
2022-10-19T13:03:38.864Z,22.85
2022-10-19T13:06:33.908Z,23.43
2022-10-19T13:09:06.010Z,23.82
2022-10-19T13:11:37.522Z,23.75
2022-10-19T13:14:16.775Z,23.56
2022-10-19T13:17:05.912Z,23.82
2022-10-19T13:19:36.970Z,23.87
2022-10-19T13:22:27.515Z,23.64
2022-10-19T13:25:20.073Z,23.47
2022-10-19T13:27:57.268Z,23.31
2022-10-19T13:30:45.671Z,23.15
2022-10-19T13:33:30.811Z,23.09
2022-10-19T13:36:01.025Z,22.99
2022-10-19T13:38:49.922Z,23.12
2022-10-19T13:41:45.640Z,23.31
2022-10-19T13:44:17.496Z,23.34
2022-10-19T13:47:03.025Z,23.49
2022-10-19T13:50:09.571Z,23.71
2022-10-19T13:52:48.843Z,23.77
2022-10-19T13:55:47.147Z,23.67
2022-10-19T13:58:23.773Z,23.58
2022-10-19T14:01:28.803Z,23.73
2022-10-19T14:04:22.625Z,24.14
2022-10-19T14:07:02.909Z,24.17
2022-10-19T14:09:42.412Z,24.19
2022-10-19T14:12:31.147Z,24.11
2022-10-19T14:15:01.659Z,24.04
2022-10-19T14:17:43.576Z,24.11
2022-10-19T14:20:33.570Z,24.15
2022-10-19T14:23:26.733Z,24.33
2022-10-19T14:26:08.061Z,24.35
2022-10-19T14:28:38.700Z,24.45
2022-10-19T14:31:20.146Z,24.42
2022-10-19T14:33:55.539Z,24.33
2022-10-19T14:36:30.770Z,24.38
2022-10-19T14:39:01.192Z,24.14
2022-10-19T14:41:38.607Z,24.05
2022-10-19T14:44:42.563Z,24.12
2022-10-19T14:47:20.801Z,24.21
2022-10-19T14:49:52.211Z,24.33
2022-10-19T14:52:32.291Z,24.39
2022-10-19T14:55:14.094Z,24.14
2022-10-19T14:57:50.683Z,24.12
2022-10-19T15:00:23.713Z,24.26
2022-10-19T15:03:06.977Z,24.29
2022-10-19T15:05:43.450Z,24.14
2022-10-19T15:08:24.814Z,24.24
2022-10-19T15:10:55.267Z,24.25
2022-10-19T15:13:28.544Z,24.26
2022-10-19T15:15:59.059Z,24.24
2022-10-19T15:18:48.852Z,24.39
2022-10-19T15:21:23.046Z,24.24
2022-10-19T15:23:54.815Z,24.18
2022-10-19T15:26:27.962Z,24.14
2022-10-19T15:29:21.323Z,24.25
2022-10-19T15:31:53.889Z,24.24
2022-10-19T15:34:28.913Z,24.32
2022-10-19T15:37:05.666Z,24.42
2022-10-19T15:39:42.066Z,24.43
2022-10-19T15:42:34.900Z,24.49
2022-10-19T15:45:26.790Z,24.56
2022-10-19T15:48:12.037Z,24.58
2022-10-19T15:50:45.591Z,24.59
2022-10-19T15:53:16.687Z,24.58
2022-10-19T15:55:47.450Z,24.65
2022-10-19T15:58:18.821Z,24.82
2022-10-19T16:00:49.302Z,24.82
2022-10-19T16:03:19.666Z,24.82
2022-10-19T16:05:51.238Z,24.93
2022-10-19T16:08:21.722Z,24.94
2022-10-19T16:10:51.848Z,24.83
2022-10-19T16:13:22.291Z,24.90
2022-10-19T16:16:01.479Z,25.20
2022-10-19T16:18:41.019Z,25.28
2022-10-19T16:21:10.610Z,25.31
2022-10-19T16:23:42.058Z,25.35
2022-10-19T16:26:15.879Z,25.55
2022-10-19T16:28:46.757Z,25.74
2022-10-19T16:31:18.151Z,25.91
2022-10-19T16:33:48.635Z,26.15
2022-10-19T16:36:21.909Z,27.35
2022-10-19T16:38:52.143Z,27.67
2022-10-19T16:41:22.739Z,28.24
2022-10-19T16:43:56.892Z,27.78
2022-10-19T16:46:27.635Z,27.51
2022-10-19T16:48:57.619Z,27.79
2022-10-19T16:51:29.210Z,27.32
2022-10-19T16:54:00.698Z,26.56
2022-10-19T16:56:31.919Z,27.38
2022-10-19T16:59:08.351Z,27.89
2022-10-19T17:01:38.579Z,27.16
2022-10-19T17:04:09.112Z,26.33
2022-10-19T17:06:39.620Z,25.86
2022-10-19T17:12:00.409Z,25.60
2022-10-19T17:14:30.736Z,25.74
2022-10-19T17:17:01.067Z,25.77
2022-10-19T17:19:31.588Z,25.91
2022-10-19T17:22:03.095Z,26.61
2022-10-19T17:24:33.721Z,26.43
2022-10-19T17:27:04.697Z,26.28
2022-10-19T17:29:35.085Z,26.88
2022-10-19T17:32:05.496Z,27.04
2022-10-19T17:34:35.854Z,27.24
2022-10-19T17:37:06.165Z,27.10
2022-10-19T17:39:36.328Z,26.81
2022-10-19T17:42:06.690Z,27.02
2022-10-19T17:44:37.346Z,27.14
2022-10-19T17:47:07.532Z,26.97
2022-10-19T17:49:38.834Z,27.05
2022-10-19T17:52:09.093Z,27.11
2022-10-19T17:54:48.596Z,27.41
2022-10-19T17:57:29.054Z,26.19
2022-10-19T17:59:59.698Z,26.63
2022-10-19T18:02:30.184Z,26.09
2022-10-19T18:05:00.610Z,25.85
2022-10-19T18:07:30.553Z,25.77
2022-10-19T18:10:00.540Z,25.68
2022-10-19T18:12:31.333Z,25.78
2022-10-19T18:15:01.551Z,25.99
2022-10-19T18:17:31.757Z,26.54
2022-10-19T18:20:01.182Z,27.32
2022-10-19T18:22:31.423Z,27.42
2022-10-19T18:25:01.817Z,27.15
2022-10-19T18:27:32.169Z,26.64
2022-10-19T18:30:02.809Z,27.32
2022-10-19T18:32:33.506Z,26.95
2022-10-19T18:35:04.266Z,27.34
2022-10-19T18:37:34.547Z,27.45
2022-10-19T18:40:05.094Z,27.43
2022-10-19T18:42:35.675Z,27.45
2022-10-19T18:45:06.436Z,27.37
2022-10-19T18:47:36.744Z,27.30
2022-10-19T18:50:07.373Z,27.04
2022-10-19T18:52:39.220Z,26.46
2022-10-19T18:55:10.152Z,26.01
2022-10-19T18:57:40.610Z,25.72
2022-10-19T19:00:12.010Z,25.50
2022-10-19T19:02:46.852Z,25.35
2022-10-19T19:05:17.539Z,25.16
2022-10-19T19:07:47.772Z,25.19
2022-10-19T19:10:19.513Z,25.03
2022-10-19T19:12:52.652Z,24.99
2022-10-19T19:15:22.956Z,25.03
2022-10-19T19:17:56.430Z,25.02
2022-10-19T19:20:26.745Z,25.50
2022-10-19T19:22:57.121Z,26.49
2022-10-19T19:25:27.432Z,27.79
2022-10-19T19:27:57.587Z,26.88
2022-10-19T19:30:29.320Z,26.64
2022-10-19T19:32:59.600Z,26.77
2022-10-19T19:35:29.865Z,26.76
2022-10-19T19:38:00.103Z,26.59
2022-10-19T19:40:30.488Z,26.47
2022-10-19T19:43:00.730Z,26.65
2022-10-19T19:45:31.158Z,26.54
2022-10-19T19:48:01.533Z,26.40
2022-10-19T19:50:33.382Z,26.26
2022-10-19T19:53:03.998Z,26.36
2022-10-19T19:55:38.965Z,26.35
2022-10-19T19:58:09.506Z,26.25
2022-10-19T20:00:41.563Z,26.19
2022-10-19T20:03:14.979Z,28.10
2022-10-19T20:05:45.351Z,27.24
2022-10-19T20:08:15.691Z,27.81
2022-10-19T20:10:46.059Z,27.31
2022-10-19T20:13:16.294Z,27.18
2022-10-19T20:15:46.046Z,26.59
2022-10-19T20:18:16.089Z,25.84
2022-10-19T20:20:46.473Z,25.67
2022-10-19T20:23:16.823Z,25.75
2022-10-19T20:25:47.108Z,28.06
2022-10-19T20:28:21.380Z,28.71
2022-10-19T20:31:05.320Z,30.36
2022-10-19T20:33:37.231Z,30.32
2022-10-19T20:36:14.832Z,28.90
2022-10-19T20:38:50.427Z,26.49
2022-10-19T20:41:22.550Z,25.69
2022-10-19T20:43:53.429Z,25.47
2022-10-19T20:46:26.483Z,25.92
2022-10-19T20:49:01.057Z,25.78
2022-10-19T20:51:38.097Z,26.02
2022-10-19T20:54:16.345Z,26.12
2022-10-19T20:56:46.774Z,25.31
2022-10-19T20:59:22.758Z,24.56
2022-10-19T21:01:56.579Z,24.24
2022-10-19T21:04:27.572Z,24.12
2022-10-19T21:06:58.536Z,23.77
2022-10-19T21:09:28.830Z,23.53
2022-10-19T21:11:59.175Z,23.30
2022-10-19T21:14:30.813Z,23.22
2022-10-19T21:17:02.472Z,23.06
2022-10-19T21:19:32.742Z,22.91
2022-10-19T21:22:04.012Z,22.79
2022-10-19T21:24:39.005Z,22.68
2022-10-19T21:27:11.009Z,22.59
2022-10-19T21:29:41.371Z,22.43
2022-10-19T21:32:11.699Z,22.33
2022-10-19T21:34:41.839Z,22.24
2022-10-19T21:37:11.803Z,22.16
2022-10-19T21:39:41.664Z,22.04
2022-10-19T21:42:11.693Z,21.92
2022-10-19T21:44:41.655Z,21.82
2022-10-19T21:47:11.815Z,21.72
2022-10-19T21:49:41.159Z,21.65
2022-10-19T21:52:15.827Z,21.59
2022-10-19T21:54:46.210Z,21.52
2022-10-19T21:57:15.838Z,21.45
2022-10-19T21:59:46.043Z,21.35
2022-10-19T22:02:16.311Z,21.32
2022-10-19T22:04:46.506Z,21.22
2022-10-19T22:07:16.644Z,21.14
2022-10-19T22:09:46.409Z,21.12
2022-10-19T22:12:16.652Z,21.05
2022-10-19T22:14:47.303Z,20.97
2022-10-19T22:17:17.643Z,20.92
2022-10-19T22:19:47.891Z,20.84
2022-10-19T22:22:17.705Z,20.90
2022-10-19T22:24:47.665Z,20.90
2022-10-19T22:27:17.834Z,20.81
2022-10-19T22:29:47.913Z,20.75
2022-10-19T22:32:18.259Z,20.75
2022-10-19T22:34:48.541Z,20.68
2022-10-19T22:37:18.251Z,20.64
2022-10-19T22:39:48.258Z,20.54
2022-10-19T22:42:18.473Z,20.60
2022-10-19T22:44:48.195Z,20.56
2022-10-19T22:47:18.302Z,20.58
2022-10-19T22:49:47.975Z,20.54
2022-10-19T22:52:18.197Z,20.47
2022-10-19T22:54:48.417Z,20.48
2022-10-19T22:57:18.978Z,20.36
2022-10-19T22:59:49.312Z,20.22
2022-10-19T23:02:19.914Z,20.16
2022-10-19T23:04:50.099Z,20.09
2022-10-19T23:07:20.338Z,20.06
2022-10-19T23:09:50.044Z,20.06
2022-10-19T23:12:20.147Z,20.05
2022-10-19T23:14:49.966Z,20.16
2022-10-19T23:17:20.803Z,20.10
2022-10-19T23:19:51.085Z,20.00
2022-10-19T23:22:21.427Z,19.97
2022-10-19T23:24:51.164Z,19.96
2022-10-19T23:27:22.334Z,19.82
2022-10-19T23:29:52.572Z,19.71
2022-10-19T23:32:22.711Z,19.64
2022-10-19T23:34:52.704Z,19.57
2022-10-19T23:37:22.764Z,19.51
2022-10-19T23:39:52.711Z,19.51
2022-10-19T23:42:22.734Z,19.47
2022-10-19T23:44:52.777Z,19.34
2022-10-19T23:47:24.628Z,19.38
2022-10-19T23:49:54.823Z,19.32
2022-10-19T23:52:24.982Z,19.28
2022-10-19T23:54:55.173Z,19.24
2022-10-19T23:57:25.347Z,19.30
2022-10-19T23:59:55.460Z,19.30
